Time;durP1;ratioP1;P1;durP2;ratioP2;P2;SDS_P1;SDS_P2;PMS_P1;PMS_P2;Temp;Humidity;BMP_temperature;BMP_pressure;BME280_temperature;BME280_humidity;BME280_pressure;Samples;Min_cycle;Max_cycle;Signal;HPM_P1;HPM_P2
2022/06/26 00:01:39;;;;;;;4.13;2.88;;;;;;;26.79;46.34;100962.72;4965269;28;20086;-66
2022/06/26 00:04:05;;;;;;;5.15;2.92;;;;;;;26.77;45.94;100962.09;4963193;28;20019;-66
2022/06/26 00:06:30;;;;;;;5.30;3.05;;;;;;;26.77;46.30;100957.44;4964298;28;20552;-65
2022/06/26 00:08:56;;;;;;;5.72;3.45;;;;;;;26.78;46.11;100956.38;4962047;28;20130;-67
2022/06/26 00:11:21;;;;;;;3.75;3.40;;;;;;;26.77;46.26;100943.69;4947840;28;20027;-66
2022/06/26 00:13:47;;;;;;;4.68;3.42;;;;;;;26.76;45.93;100947.50;4963618;28;20027;-66
2022/06/26 00:16:13;;;;;;;3.42;2.50;;;;;;;26.75;46.55;100943.06;4948561;28;20058;-66
2022/06/26 00:18:40;;;;;;;5.50;2.90;;;;;;;26.70;46.12;100942.91;4962294;28;20055;-66
2022/06/26 00:21:06;;;;;;;3.40;3.00;;;;;;;26.69;45.97;100946.72;4962118;28;20492;-66
2022/06/26 00:23:32;;;;;;;3.30;3.00;;;;;;;26.68;46.83;100950.56;4963168;28;20037;-66
2022/06/26 00:25:57;;;;;;;5.60;3.65;;;;;;;26.66;46.82;100947.22;4965139;28;20101;-66
2022/06/26 00:28:23;;;;;;;7.75;4.15;;;;;;;26.66;46.73;100952.72;4962944;28;20110;-66
2022/06/26 00:30:48;;;;;;;4.55;2.90;;;;;;;26.63;46.55;100953.19;4948590;28;20019;-66
2022/06/26 00:33:13;;;;;;;5.18;3.53;;;;;;;26.63;47.22;100947.69;4961939;28;20397;-65
2022/06/26 00:35:39;;;;;;;7.55;3.35;;;;;;;26.62;46.32;100956.97;4945945;28;20381;-66
2022/06/26 00:38:04;;;;;;;4.03;3.42;;;;;;;26.60;46.76;100967.38;4946689;28;20018;-66
2022/06/26 00:40:30;;;;;;;5.97;3.40;;;;;;;26.62;47.00;100973.47;4964830;28;20030;-66
2022/06/26 00:42:55;;;;;;;3.42;3.13;;;;;;;26.65;47.00;100978.50;4963826;28;20023;-67
2022/06/26 00:45:20;;;;;;;8.07;3.17;;;;;;;26.63;47.10;100972.41;4961977;28;20046;-66
2022/06/26 00:47:46;;;;;;;6.47;3.30;;;;;;;26.66;47.06;100984.84;4962555;28;20465;-66
2022/06/26 00:50:12;;;;;;;4.03;2.65;;;;;;;26.67;47.28;100975.53;4963623;28;20037;-66
2022/06/26 00:52:39;;;;;;;3.63;3.08;;;;;;;26.69;47.04;100987.16;4977158;28;20492;-66
2022/06/26 00:55:05;;;;;;;7.22;3.25;;;;;;;26.71;47.37;100999.59;4946500;28;20034;-66
2022/06/26 00:57:30;;;;;;;5.38;2.92;;;;;;;26.72;47.35;100993.00;4961885;28;20019;-66
2022/06/26 00:59:56;;;;;;;5.22;2.83;;;;;;;26.70;47.15;100992.41;4963563;28;20027;-66
2022/06/26 01:02:22;;;;;;;7.13;3.25;;;;;;;26.69;47.31;101006.38;4963405;28;20023;-66
2022/06/26 01:04:48;;;;;;;8.93;4.15;;;;;;;26.69;47.43;101001.69;4930092;28;20584;-66
2022/06/26 01:07:14;;;;;;;5.25;2.67;;;;;;;26.69;47.10;101001.69;4931595;28;20203;-65
2022/06/26 01:09:39;;;;;;;5.22;2.55;;;;;;;26.70;47.02;101008.88;4963075;28;20109;-65
2022/06/26 01:12:06;;;;;;;5.78;2.50;;;;;;;26.65;47.44;101006.00;4993189;28;20166;-66
2022/06/26 01:14:31;;;;;;;3.22;2.33;;;;;;;26.65;46.95;101000.50;4980395;28;20022;-65
2022/06/26 01:16:59;;;;;;;4.40;2.47;;;;;;;26.63;47.39;101004.56;4989804;28;20026;-66
2022/06/26 01:19:25;;;;;;;4.10;2.80;;;;;;;26.60;47.46;100997.63;4989308;28;20038;-66
2022/06/26 01:21:50;;;;;;;5.40;2.53;;;;;;;26.60;47.27;101005.84;4989436;28;20023;-66
2022/06/26 01:24:16;;;;;;;6.05;2.85;;;;;;;26.58;47.15;101010.72;4989328;28;20049;-66
2022/06/26 01:26:41;;;;;;;3.28;2.63;;;;;;;26.56;47.09;101010.13;4989387;28;20101;-66
2022/06/26 01:29:07;;;;;;;4.72;3.22;;;;;;;26.56;47.13;101012.88;4973087;28;20019;-65
2022/06/26 01:31:34;;;;;;;5.47;2.83;;;;;;;26.51;47.32;101015.47;4989408;28;20497;-66
2022/06/26 01:33:59;;;;;;;5.55;3.25;;;;;;;26.49;47.94;101012.13;4973056;28;20400;-66
2022/06/26 01:36:25;;;;;;;3.58;2.95;;;;;;;26.49;47.64;101023.09;4972984;28;20026;-67
2022/06/26 01:38:50;;;;;;;10.52;3.67;;;;;;;26.48;47.42;101015.91;4972997;28;20026;-65
2022/06/26 01:41:15;;;;;;;4.47;2.53;;;;;;;26.46;47.40;101021.66;4974167;28;20022;-66
2022/06/26 01:43:41;;;;;;;4.25;2.33;;;;;;;26.42;47.64;101005.84;4989279;28;20026;-65
2022/06/26 01:46:06;;;;;;;4.25;1.92;;;;;;;26.39;47.26;101003.53;4973013;28;20022;-66
2022/06/26 01:48:35;;;;;;;4.28;2.10;;;;;;;26.37;47.11;101009.28;4989108;28;20030;-66
2022/06/26 01:51:01;;;;;;;5.03;1.98;;;;;;;26.37;47.07;101016.69;4972924;28;20031;-66
2022/06/26 01:53:27;;;;;;;3.83;1.75;;;;;;;26.32;47.45;101017.38;5005400;28;20515;-66
2022/06/26 01:55:53;;;;;;;2.28;1.17;;;;;;;26.32;47.22;101020.13;4972840;28;20481;-66
2022/06/26 01:58:19;;;;;;;1.00;1.00;;;;;;;26.27;46.47;101030.13;4976518;28;20023;-66
2022/06/26 02:00:45;;;;;;;1.27;1.00;;;;;;;26.23;46.89;101020.63;4977684;28;20022;-66
2022/06/26 02:03:11;;;;;;;3.15;1.65;;;;;;;26.19;46.69;101011.16;4992779;28;20034;-65
2022/06/26 02:05:37;;;;;;;5.22;1.83;;;;;;;26.09;47.02;101000.66;4992617;28;20174;-66
2022/06/26 02:08:03;;;;;;;4.40;1.35;;;;;;;26.10;46.98;101015.25;4992500;28;20544;-67
2022/06/26 02:16:00;;;;;;;1.73;1.30;;;;;;;26.02;47.04;101028.19;4990317;28;20050;-66
2022/06/26 02:18:26;;;;;;;1.30;1.20;;;;;;;26.02;46.92;101030.09;4992458;28;20019;-66
2022/06/26 02:20:51;;;;;;;1.42;1.30;;;;;;;26.01;46.88;101029.28;4976120;28;20031;-66
2022/06/26 02:23:16;;;;;;;1.27;1.10;;;;;;;25.97;46.77;101044.50;4992462;28;20023;-65
2022/06/26 02:25:42;;;;;;;3.67;2.00;;;;;;;25.94;46.63;101041.34;4992399;28;20034;-65
2022/06/26 02:28:08;;;;;;;1.98;1.30;;;;;;;25.91;46.99;101042.66;4976017;28;20418;-66
2022/06/26 02:30:33;;;;;;;1.17;1.00;;;;;;;25.91;46.65;101048.13;4992186;28;20057;-66
2022/06/26 02:32:59;;;;;;;3.45;1.50;;;;;;;25.92;46.81;101044.34;4992109;28;20023;-66
2022/06/26 02:35:26;;;;;;;1.38;1.20;;;;;;;25.92;46.77;101038.84;4992210;28;20058;-65
2022/06/26 02:37:52;;;;;;;1.85;1.42;;;;;;;25.90;46.20;101032.75;4992230;28;20037;-66
2022/06/26 02:40:19;;;;;;;3.35;1.30;;;;;;;25.89;46.92;101036.53;4975747;28;20121;-65
2022/06/26 02:42:45;;;;;;;1.63;1.40;;;;;;;25.89;46.48;101046.69;4975737;28;20033;-65
2022/06/26 02:45:11;;;;;;;2.97;1.38;;;;;;;25.88;46.75;101047.78;4975661;28;20381;-65
2022/06/26 02:47:37;;;;;;;3.38;1.40;;;;;;;25.88;46.74;101062.31;4991788;28;20033;-66
2022/06/26 02:50:03;;;;;;;3.58;1.38;;;;;;;25.87;46.90;101063.41;4975610;28;20026;-66
2022/06/26 02:52:29;;;;;;;4.85;1.50;;;;;;;25.84;46.79;101068.47;4991772;28;20031;-65
2022/06/26 02:54:54;;;;;;;5.53;1.42;;;;;;;25.84;46.46;101077.56;4975519;28;20484;-65
2022/06/26 02:57:20;;;;;;;5.65;1.27;;;;;;;25.83;47.07;101069.53;4975525;28;20025;-66
2022/06/26 02:59:45;;;;;;;2.30;1.10;;;;;;;25.81;46.79;101069.78;4975517;28;20392;-66
2022/06/26 03:02:10;;;;;;;4.47;1.40;;;;;;;25.80;46.44;101072.72;4975339;28;20100;-66
2022/06/26 03:04:36;;;;;;;1.10;0.90;;;;;;;25.77;46.81;101076.75;4975359;28;20109;-65
2022/06/26 03:07:01;;;;;;;4.10;1.13;;;;;;;25.75;46.14;101067.06;4975190;28;20046;-65
2022/06/26 03:09:27;;;;;;;3.10;1.02;;;;;;;25.72;46.40;101070.25;5007333;28;20030;-65
2022/06/26 03:11:52;;;;;;;2.70;1.20;;;;;;;25.67;46.69;101059.94;4975135;28;20175;-65
2022/06/26 03:14:17;;;;;;;1.70;1.10;;;;;;;25.62;46.74;101070.75;4975194;28;20055;-65
2022/06/26 03:16:43;;;;;;;1.30;1.08;;;;;;;25.59;46.47;101082.19;4991384;28;20102;-65
2022/06/26 03:19:09;;;;;;;4.65;1.40;;;;;;;25.57;46.41;101092.53;4974947;28;20058;-65
2022/06/26 03:21:34;;;;;;;5.53;1.67;;;;;;;25.54;46.36;101079.25;4991178;28;20019;-67
2022/06/26 03:24:02;;;;;;;1.92;1.35;;;;;;;25.51;46.35;101104.41;4974952;28;20030;-66
2022/06/26 03:26:33;;;;;;;1.83;1.50;;;;;;;25.46;46.65;101121.47;4990784;28;20499;-66
2022/06/26 03:28:58;;;;;;;2.33;1.50;;;;;;;25.39;46.22;101122.56;5007565;28;20037;-65
2022/06/26 03:31:24;;;;;;;3.28;1.40;;;;;;;25.34;45.89;101125.13;4991060;28;20031;-66
2022/06/26 03:33:49;;;;;;;1.52;1.20;;;;;;;25.26;46.49;101119.91;4974813;28;20121;-65
2022/06/26 03:36:14;;;;;;;3.03;1.30;;;;;;;25.20;46.71;101112.53;5000651;28;20089;-66
2022/06/26 03:38:40;;;;;;;5.10;1.40;;;;;;;25.17;46.15;101118.44;4976450;28;20111;-65
2022/06/26 03:41:05;;;;;;;1.70;1.35;;;;;;;25.09;46.52;101119.53;4979589;28;20026;-65
2022/06/26 03:43:31;;;;;;;1.38;1.10;;;;;;;25.08;46.74;101127.97;4958581;28;20029;-65
2022/06/26 03:45:57;;;;;;;2.25;1.17;;;;;;;25.05;46.75;101120.19;4958433;28;20070;-65
2022/06/26 03:48:23;;;;;;;2.13;1.55;;;;;;;25.05;46.66;101111.94;4974413;28;20036;-65
2022/06/26 03:50:48;;;;;;;2.00;1.40;;;;;;;25.08;46.35;101117.00;4993979;28;20137;-66
2022/06/26 03:53:13;;;;;;;3.42;1.48;;;;;;;25.07;46.94;101120.81;4994076;28;20462;-64
2022/06/26 03:55:39;;;;;;;4.25;1.15;;;;;;;25.05;46.68;101125.66;4978108;28;20073;-64
2022/06/26 03:58:04;;;;;;;4.97;1.55;;;;;;;25.05;46.39;101122.91;4993897;28;20018;-65
2022/06/26 04:00:30;;;;;;;4.35;2.05;;;;;;;25.06;46.58;101130.09;4993831;28;20476;-65
2022/06/26 04:02:55;;;;;;;6.20;1.70;;;;;;;25.07;46.85;101129.06;4968271;28;20023;-65
2022/06/26 04:05:21;;;;;;;3.20;1.42;;;;;;;25.07;46.84;101121.63;4974412;28;20027;-65
2022/06/26 04:07:47;;;;;;;3.58;1.50;;;;;;;25.08;46.62;101122.50;4974064;28;20167;-65
2022/06/26 04:10:12;;;;;;;2.45;1.30;;;;;;;25.10;46.74;101131.38;4958075;28;20030;-66
2022/06/26 04:12:38;;;;;;;2.65;1.55;;;;;;;25.13;46.40;101131.75;4974282;28;20030;-65
2022/06/26 04:15:04;;;;;;;4.32;1.45;;;;;;;25.15;46.67;101128.81;4974185;28;20548;-65
2022/06/26 04:17:30;;;;;;;1.80;1.40;;;;;;;25.18;46.37;101140.16;4974003;28;20045;-65
2022/06/26 04:19:55;;;;;;;2.50;1.20;;;;;;;25.23;46.63;101147.75;4957117;28;20039;-65
2022/06/26 04:22:20;;;;;;;4.93;1.50;;;;;;;25.24;46.20;101143.94;4975298;28;20029;-65
2022/06/26 04:24:46;;;;;;;2.42;1.80;;;;;;;25.27;46.39;101133.38;4973931;28;20510;-66
2022/06/26 04:27:11;;;;;;;3.72;1.52;;;;;;;25.30;46.38;101145.81;4973884;28;20026;-66
2022/06/26 04:29:36;;;;;;;4.07;1.65;;;;;;;25.34;46.18;101144.34;4975116;28;20106;-66
2022/06/26 04:32:02;;;;;;;11.00;2.00;;;;;;;25.38;46.40;101145.56;4974302;28;20046;-64
2022/06/26 04:34:27;;;;;;;1.63;1.52;;;;;;;25.41;46.27;101143.22;4993230;28;20089;-66
2022/06/26 04:36:52;;;;;;;5.70;1.52;;;;;;;25.54;45.88;101152.50;4994391;28;20028;-66
2022/06/26 04:39:18;;;;;;;4.40;1.80;;;;;;;25.65;45.87;101151.81;4977351;28;20026;-65
2022/06/26 04:41:44;;;;;;;4.00;1.80;;;;;;;25.80;45.62;101161.41;4994300;28;20509;-65
2022/06/26 04:44:11;;;;;;;3.95;1.80;;;;;;;25.90;45.82;101171.91;4993086;28;20037;-66
2022/06/26 04:46:39;;;;;;;3.88;1.60;;;;;;;25.97;45.15;101170.81;4992940;28;20113;-65
2022/06/26 04:49:05;;;;;;;5.22;1.65;;;;;;;26.05;45.39;101165.03;4992987;28;20468;-66
2022/06/26 04:51:30;;;;;;;3.40;1.70;;;;;;;26.11;45.14;101162.47;4993022;28;20077;-65
2022/06/26 04:53:55;;;;;;;1.90;1.48;;;;;;;26.18;45.19;101163.31;4976833;28;20077;-65
2022/06/26 04:56:21;;;;;;;6.53;1.40;;;;;;;26.26;45.56;101155.63;4993006;28;20110;-66
2022/06/26 04:58:46;;;;;;;2.15;1.65;;;;;;;26.34;45.07;101140.75;4994057;28;20030;-66
2022/06/26 05:01:12;;;;;;;4.30;1.40;;;;;;;26.52;44.62;101155.38;4992996;28;20050;-66
2022/06/26 05:03:37;;;;;;;8.25;1.75;;;;;;;26.70;44.33;101159.25;4992829;28;20029;-65
2022/06/26 05:06:03;;;;;;;2.80;1.52;;;;;;;26.80;44.25;101143.13;4993208;28;20090;-66
2022/06/26 05:08:28;;;;;;;1.98;1.20;;;;;;;26.89;44.61;101142.56;4992529;28;20101;-66
2022/06/26 05:10:53;;;;;;;5.25;1.20;;;;;;;26.84;44.53;101136.06;4992875;28;20484;-66
2022/06/26 05:13:19;;;;;;;3.08;1.73;;;;;;;26.92;43.97;101142.13;4992887;28;20049;-65
2022/06/26 05:15:44;;;;;;;1.75;1.05;;;;;;;26.99;44.35;101147.56;4994068;28;20100;-66
2022/06/26 05:18:09;;;;;;;2.35;1.05;;;;;;;27.06;43.69;101157.41;4992600;28;20026;-66
2022/06/26 05:20:35;;;;;;;1.42;1.33;;;;;;;27.09;44.15;101165.19;4992722;28;20031;-65
2022/06/26 05:23:00;;;;;;;1.70;1.23;;;;;;;27.13;43.67;101171.94;4993747;28;20494;-65
2022/06/26 05:25:26;;;;;;;1.52;1.00;;;;;;;27.21;43.58;101173.53;4983183;28;20118;-66
2022/06/26 05:27:51;;;;;;;2.22;1.30;;;;;;;27.25;43.83;101182.16;4974417;28;20038;-66
2022/06/26 05:30:16;;;;;;;8.27;1.30;;;;;;;27.24;44.02;101196.97;4973231;28;20025;-66
2022/06/26 05:32:42;;;;;;;1.80;1.40;;;;;;;27.09;43.57;101203.72;4976633;28;20026;-66
2022/06/26 05:35:08;;;;;;;2.40;1.25;;;;;;;27.14;43.38;101203.84;4960918;28;20069;-66
2022/06/26 05:37:33;;;;;;;3.83;0.90;;;;;;;27.23;43.18;101198.88;4978365;28;20473;-66
2022/06/26 05:39:58;;;;;;;5.05;3.17;;;;;;;27.31;43.35;101217.84;4960853;28;20468;-66
2022/06/26 05:42:24;;;;;;;6.20;1.48;;;;;;;27.41;42.71;101203.59;4976929;28;20054;-66
2022/06/26 05:44:49;;;;;;;1.98;1.08;;;;;;;27.36;43.29;101201.47;4977110;28;20027;-66
2022/06/26 05:47:15;;;;;;;1.58;1.20;;;;;;;27.32;42.94;101208.53;4976842;28;20041;-66
2022/06/26 05:49:40;;;;;;;6.45;1.67;;;;;;;27.39;43.13;101216.69;4960562;28;20480;-66
2022/06/26 05:52:06;;;;;;;3.75;1.20;;;;;;;27.43;43.08;101217.94;4976675;28;20035;-66
2022/06/26 05:54:32;;;;;;;3.47;0.80;;;;;;;27.53;42.66;101215.50;4977762;28;20027;-66
2022/06/26 05:56:57;;;;;;;5.22;1.40;;;;;;;27.59;42.83;101206.31;4977860;28;20092;-66
2022/06/26 05:59:22;;;;;;;2.15;0.75;;;;;;;27.61;42.67;101221.53;4972095;28;20023;-66
2022/06/26 06:01:48;;;;;;;1.90;0.93;;;;;;;27.66;42.19;101238.22;4959982;28;20056;-66
2022/06/26 06:04:14;;;;;;;3.50;1.08;;;;;;;27.68;42.44;101238.81;4957371;29;20038;-66
2022/06/26 06:06:39;;;;;;;2.78;1.13;;;;;;;27.84;41.86;101245.59;4941030;29;20035;-66
2022/06/26 06:09:04;;;;;;;2.58;1.00;;;;;;;27.95;41.87;101233.78;4958366;28;20126;-66
2022/06/26 06:11:30;;;;;;;4.18;1.27;;;;;;;28.08;41.48;101233.66;4957197;29;20389;-66
2022/06/26 06:13:55;;;;;;;2.15;0.90;;;;;;;28.12;41.49;101232.09;4957073;29;20037;-66
2022/06/26 06:16:20;;;;;;;3.08;0.93;;;;;;;28.11;41.00;101232.34;4941053;29;20070;-66
2022/06/26 06:18:46;;;;;;;3.00;0.95;;;;;;;28.18;41.19;101233.91;4941192;28;20023;-66
2022/06/26 06:21:11;;;;;;;5.38;2.00;;;;;;;28.23;40.76;101236.78;4956895;28;20027;-66
2022/06/26 06:23:37;;;;;;;1.63;0.70;;;;;;;28.27;41.50;101232.50;4957934;28;20043;-66
2022/06/26 06:26:03;;;;;;;2.90;0.85;;;;;;;28.31;40.74;101233.69;4956995;29;20033;-66
2022/06/26 06:28:28;;;;;;;2.38;0.95;;;;;;;28.29;40.63;101230.34;4956776;29;20023;-66
2022/06/26 06:30:53;;;;;;;1.00;0.90;;;;;;;28.30;40.34;101221.00;4956772;28;20042;-65
2022/06/26 06:33:19;;;;;;;4.30;0.93;;;;;;;28.30;41.16;101217.41;4957777;28;20034;-65
2022/06/26 06:35:44;;;;;;;2.00;1.05;;;;;;;28.32;40.56;101215.25;4956824;29;20035;-65
2022/06/26 06:38:10;;;;;;;14.52;2.40;;;;;;;28.30;41.05;101231.19;4981116;28;20109;-65
2022/06/26 06:40:35;;;;;;;7.38;1.17;;;;;;;28.26;40.82;101228.06;4978063;28;20030;-65
2022/06/26 06:43:00;;;;;;;3.35;0.70;;;;;;;28.27;41.16;101240.78;4991196;28;20031;-65
2022/06/26 06:45:26;;;;;;;3.53;1.05;;;;;;;28.26;40.37;101240.97;4991651;28;20476;-65
2022/06/26 06:47:51;;;;;;;3.00;0.80;;;;;;;28.27;40.44;101257.31;4996336;28;20539;-66
2022/06/26 06:50:17;;;;;;;2.25;0.85;;;;;;;28.26;40.61;101269.38;4996399;28;20106;-65
2022/06/26 06:52:42;;;;;;;2.17;0.65;;;;;;;28.29;40.20;101268.09;4962696;28;20170;-65
2022/06/26 06:55:08;;;;;;;4.82;1.13;;;;;;;28.33;39.92;101262.94;4996336;28;20038;-65
2022/06/26 06:57:33;;;;;;;2.05;0.70;;;;;;;28.38;39.98;101272.19;4980946;28;20050;-65
2022/06/26 06:59:59;;;;;;;0.95;0.70;;;;;;;28.40;40.48;101292.09;4976719;28;20395;-65
2022/06/26 07:02:24;;;;;;;6.30;1.17;;;;;;;28.44;40.29;101287.78;4975587;28;20035;-65
2022/06/26 07:04:50;;;;;;;2.88;0.70;;;;;;;28.45;40.69;101296.91;4976586;28;20031;-65
2022/06/26 07:07:15;;;;;;;3.35;0.60;;;;;;;28.40;39.95;101294.84;4975111;28;20386;-65
2022/06/26 07:09:41;;;;;;;2.53;1.00;;;;;;;28.37;40.71;101305.47;4975452;28;20058;-65
2022/06/26 07:12:06;;;;;;;2.85;1.35;;;;;;;28.30;40.43;101303.69;4975148;28;20078;-65
2022/06/26 07:14:32;;;;;;;4.03;0.90;;;;;;;28.27;40.50;101303.31;4975174;28;20031;-65
2022/06/26 07:16:57;;;;;;;4.65;0.90;;;;;;;28.24;40.56;101298.25;4981247;28;20073;-65
2022/06/26 07:19:23;;;;;;;3.55;1.17;;;;;;;28.25;40.12;101298.00;4994646;28;20476;-65
2022/06/26 07:21:48;;;;;;;0.65;0.65;;;;;;;28.25;40.38;101284.22;4994526;28;20061;-65
2022/06/26 07:24:14;;;;;;;1.05;0.90;;;;;;;28.26;40.86;101302.47;4995665;28;20026;-65
2022/06/26 07:26:40;;;;;;;1.52;0.80;;;;;;;28.28;40.00;101316.03;4962081;28;20141;-65
2022/06/26 07:29:07;;;;;;;1.70;0.82;;;;;;;28.24;40.63;101321.16;4994300;28;20028;-65
2022/06/26 07:31:32;;;;;;;1.45;0.80;;;;;;;28.21;40.40;101326.28;4978108;28;20480;-65
2022/06/26 07:34:13;;;;;;;1.23;0.80;;;;;;;28.16;40.38;101329.75;4985859;28;20077;-65
2022/06/26 07:36:40;;;;;;;2.65;0.63;;;;;;;28.15;40.99;101333.56;4960714;28;20779;-65
2022/06/26 07:39:05;;;;;;;2.70;0.75;;;;;;;28.13;40.73;101324.69;4974861;28;20022;-64
2022/06/26 07:41:30;;;;;;;1.45;0.77;;;;;;;28.13;40.26;101324.69;4974522;28;20026;-66
2022/06/26 07:43:56;;;;;;;2.70;0.70;;;;;;;28.12;40.01;101324.91;4973846;28;20113;-65
2022/06/26 07:46:21;;;;;;;2.90;0.95;;;;;;;28.09;39.83;101323.47;4975724;28;20049;-65
2022/06/26 07:48:47;;;;;;;6.55;0.90;;;;;;;28.06;40.16;101329.44;4974541;28;20038;-65
2022/06/26 07:51:12;;;;;;;1.13;0.88;;;;;;;28.06;40.11;101317.56;4974434;28;20027;-64
2022/06/26 07:53:37;;;;;;;1.90;0.82;;;;;;;28.03;40.63;101318.88;4974459;28;20026;-64
2022/06/26 07:56:04;;;;;;;4.45;1.10;;;;;;;28.00;40.61;101319.31;4974325;28;20101;-64
2022/06/26 07:58:29;;;;;;;3.05;0.75;;;;;;;27.99;40.28;101334.19;4974431;28;20484;-65
2022/06/26 08:00:55;;;;;;;1.95;0.80;;;;;;;27.99;40.12;101339.69;4974369;28;20031;-64
2022/06/26 08:03:20;;;;;;;1.80;0.80;;;;;;;27.96;40.64;101340.16;4974350;28;20451;-65
2022/06/26 08:05:47;;;;;;;3.05;1.00;;;;;;;27.89;40.32;101342.13;4958052;28;20081;-65
2022/06/26 08:08:12;;;;;;;2.13;0.98;;;;;;;27.82;40.49;101348.78;4974033;28;20047;-65
2022/06/26 08:10:38;;;;;;;3.40;1.23;;;;;;;27.73;40.35;101346.34;4974139;28;20412;-65
2022/06/26 08:13:04;;;;;;;3.63;0.63;;;;;;;27.64;40.19;101344.09;4974180;28;20385;-65
2022/06/26 08:15:30;;;;;;;2.70;1.08;;;;;;;27.57;40.57;101335.09;4974008;28;20031;-65
2022/06/26 08:17:55;;;;;;;4.88;0.77;;;;;;;27.49;40.99;101339.00;4957874;28;20022;-65
2022/06/26 08:20:21;;;;;;;2.08;0.95;;;;;;;27.47;41.17;101345.81;4974079;28;20038;-65
2022/06/26 08:22:46;;;;;;;1.05;0.70;;;;;;;27.46;40.98;101344.09;4957929;28;20034;-65
2022/06/26 08:25:12;;;;;;;2.45;0.93;;;;;;;27.49;41.50;101347.25;4973948;28;20450;-65
2022/06/26 08:27:37;;;;;;;3.17;1.17;;;;;;;27.52;41.07;101345.94;4973894;28;20027;-65
2022/06/26 08:30:03;;;;;;;3.83;0.80;;;;;;;27.56;41.33;101344.41;4957778;28;20027;-65
2022/06/26 08:32:28;;;;;;;1.77;0.93;;;;;;;27.57;40.52;101341.44;4973715;28;20023;-65
2022/06/26 08:34:54;;;;;;;1.58;0.75;;;;;;;27.60;40.22;101345.66;4973809;28;20022;-66
2022/06/26 08:37:19;;;;;;;1.52;0.90;;;;;;;27.63;40.50;101347.94;4973480;28;20027;-65
2022/06/26 08:39:44;;;;;;;1.80;0.70;;;;;;;27.65;41.14;101348.56;4973681;28;20042;-65
2022/06/26 08:42:10;;;;;;;1.70;0.57;;;;;;;27.64;40.94;101352.38;4974634;28;20038;-65
2022/06/26 08:44:43;;;;;;;6.82;1.15;;;;;;;27.63;41.11;101351.56;4974873;28;20026;-66
2022/06/26 08:47:13;;;;;;;2.55;1.23;;;;;;;27.63;40.89;101339.69;4973607;28;20069;-65
2022/06/26 08:49:42;;;;;;;3.95;1.20;;;;;;;27.65;41.60;101340.28;4957395;28;20029;-65
2022/06/26 08:52:10;;;;;;;6.25;0.90;;;;;;;27.62;40.40;101333.34;4973634;28;20050;-65
2022/06/26 08:54:35;;;;;;;4.15;1.00;;;;;;;27.61;40.89;101347.34;4957406;28;20498;-65
2022/06/26 08:57:01;;;;;;;1.17;0.90;;;;;;;27.61;41.40;101353.66;4973573;28;20105;-65
2022/06/26 08:59:27;;;;;;;1.38;0.95;;;;;;;27.59;40.81;101346.72;4973561;28;20476;-65
2022/06/26 09:01:52;;;;;;;2.17;1.00;;;;;;;27.60;40.53;101352.00;4973494;28;20053;-65
2022/06/26 09:04:17;;;;;;;1.05;0.60;;;;;;;27.60;41.20;101346.50;4957333;28;20018;-65
2022/06/26 09:06:44;;;;;;;1.05;0.80;;;;;;;27.59;40.97;101336.56;4973833;28;20400;-65
2022/06/26 09:09:13;;;;;;;3.90;1.30;;;;;;;27.60;41.09;101343.75;4973412;28;20041;-65
2022/06/26 09:11:39;;;;;;;2.50;0.90;;;;;;;27.60;41.04;101346.50;4974562;28;20444;-65
2022/06/26 09:14:04;;;;;;;2.28;0.93;;;;;;;27.60;40.80;101340.16;4957174;28;20022;-65
2022/06/26 09:16:33;;;;;;;2.80;0.70;;;;;;;27.62;40.85;101354.50;4973487;28;20027;-65
2022/06/26 09:19:10;;;;;;;2.05;0.98;;;;;;;27.63;40.92;101359.81;4973935;28;20027;-66
2022/06/26 09:21:35;;;;;;;0.85;0.85;;;;;;;27.62;40.91;101365.53;4973271;28;20030;-65
2022/06/26 09:24:01;;;;;;;3.25;1.10;;;;;;;27.59;41.41;101361.31;4986818;28;20038;-65
2022/06/26 09:26:27;;;;;;;1.52;0.77;;;;;;;27.62;41.23;101371.03;4978686;28;20110;-65
2022/06/26 09:28:52;;;;;;;5.07;1.23;;;;;;;27.61;40.84;101375.69;4981410;28;20026;-65
2022/06/26 09:31:20;;;;;;;1.08;0.98;;;;;;;27.58;40.82;101376.16;4992684;28;20026;-65
2022/06/26 09:33:46;;;;;;;3.58;1.15;;;;;;;27.54;40.82;101379.59;4976361;28;20488;-65
2022/06/26 09:36:18;;;;;;;2.60;1.50;;;;;;;27.54;41.61;101379.59;4992535;28;20041;-64
2022/06/26 09:38:51;;;;;;;2.50;2.05;;;;;;;27.52;41.64;101382.59;4993844;28;20500;-65
2022/06/26 09:41:28;;;;;;;1.83;1.40;;;;;;;27.52;41.58;101381.75;4963157;28;20547;-65
2022/06/26 09:43:55;;;;;;;8.27;1.80;;;;;;;27.46;41.22;101379.88;4973165;28;20031;-65
2022/06/26 09:46:31;;;;;;;2.90;1.40;;;;;;;27.42;40.87;101396.00;4973009;28;20051;-65
2022/06/26 09:49:00;;;;;;;2.08;1.52;;;;;;;27.35;41.19;101397.97;4956726;28;20034;-65
2022/06/26 09:51:26;;;;;;;3.28;1.38;;;;;;;27.30;41.69;101410.72;4972975;28;20037;-65
2022/06/26 09:53:52;;;;;;;2.58;1.38;;;;;;;27.25;42.29;101405.03;4972966;28;20023;-65
2022/06/26 09:56:18;;;;;;;3.55;1.23;;;;;;;27.18;41.66;101385.81;4972816;28;20023;-65
2022/06/26 09:58:44;;;;;;;2.55;1.23;;;;;;;27.13;41.71;101405.78;4956792;28;20440;-66
2022/06/26 10:06:45;;;;;;;3.22;1.50;;;;;;;26.98;42.64;101409.88;4972932;28;20454;-66
2022/06/26 10:09:11;;;;;;;2.80;1.95;;;;;;;26.88;43.09;101418.66;4982209;28;20476;-66
2022/06/26 10:11:39;;;;;;;2.22;1.55;;;;;;;26.77;43.17;101422.06;4976074;28;20125;-66
2022/06/26 10:14:19;;;;;;;5.13;1.42;;;;;;;26.60;43.31;101423.66;4976310;28;20026;-65
2022/06/26 10:17:15;;;;;;;4.78;1.88;;;;;;;26.51;43.70;101427.69;4976307;28;20475;-66
2022/06/26 10:19:43;;;;;;;2.50;1.30;;;;;;;26.35;43.51;101431.81;4996148;28;20108;-65
2022/06/26 10:22:09;;;;;;;7.30;1.50;;;;;;;26.24;44.04;101442.63;4985935;28;20038;-66
2022/06/26 10:24:35;;;;;;;4.45;1.70;;;;;;;26.18;44.41;101436.09;4976230;28;20066;-66
2022/06/26 10:27:02;;;;;;;7.07;2.05;;;;;;;26.12;44.36;101441.56;4959974;28;20067;-66
2022/06/26 10:29:33;;;;;;;6.40;1.60;;;;;;;26.05;44.30;101445.16;4976235;28;20023;-65
2022/06/26 10:31:58;;;;;;;6.10;1.60;;;;;;;26.01;44.62;101446.66;4976134;28;20142;-65
2022/06/26 10:34:25;;;;;;;4.45;1.45;;;;;;;25.94;44.55;101442.22;4959730;28;20129;-65
2022/06/26 10:36:59;;;;;;;6.20;1.63;;;;;;;25.84;44.92;101444.59;4960311;28;20532;-65
2022/06/26 10:39:36;;;;;;;2.75;1.30;;;;;;;25.71;45.40;101437.19;4987631;28;20029;-65
2022/06/26 10:45:31;;;;;;;4.20;1.60;;;;;;;25.61;45.78;101433.22;4995485;28;20061;-65
2022/06/26 10:47:59;;;;;;;5.55;2.10;;;;;;;25.64;45.70;101430.88;4995116;28;20118;-65
2022/06/26 10:50:38;;;;;;;2.97;1.90;;;;;;;25.69;45.88;101439.31;4995192;28;20476;-65
2022/06/26 10:53:25;;;;;;;1.52;1.35;;;;;;;25.73;45.67;101435.09;4995146;28;20388;-65
2022/06/26 10:55:58;;;;;;;4.22;1.45;;;;;;;25.75;46.15;101429.38;4996281;28;20034;-65
2022/06/26 10:58:32;;;;;;;3.78;1.77;;;;;;;25.90;45.76;101430.84;4996265;28;20022;-66
2022/06/26 11:00:59;;;;;;;4.53;1.63;;;;;;;26.09;45.93;101420.88;4994926;28;20053;-65
2022/06/26 11:03:25;;;;;;;1.83;1.25;;;;;;;26.27;45.50;101420.22;4995011;28;20077;-65
2022/06/26 11:06:05;;;;;;;3.35;1.40;;;;;;;26.38;45.70;101403.03;4978635;28;20042;-65
2022/06/26 11:08:34;;;;;;;4.63;1.27;;;;;;;26.44;45.52;101399.38;4978341;28;20044;-65
2022/06/26 11:11:07;;;;;;;6.05;1.85;;;;;;;26.49;45.80;101385.88;4994784;28;20030;-65
2022/06/26 11:13:34;;;;;;;2.75;1.30;;;;;;;26.58;46.00;101390.00;4994796;28;20126;-66
2022/06/26 11:16:00;;;;;;;8.00;3.20;;;;;;;26.77;45.62;101389.06;4993545;28;20112;-66
2022/06/26 11:18:25;;;;;;;1.40;1.08;;;;;;;26.94;44.91;101378.41;4959286;28;20117;-64
2022/06/26 11:20:56;;;;;;;4.07;1.40;;;;;;;27.13;44.18;101378.25;4959076;28;20033;-64
2022/06/26 11:23:29;;;;;;;2.22;1.45;;;;;;;27.30;44.90;101374.94;4975407;28;20046;-64
2022/06/26 11:26:00;;;;;;;3.70;1.40;;;;;;;27.50;43.57;101370.13;4975241;28;20454;-65
2022/06/26 11:28:41;;;;;;;5.03;1.77;;;;;;;27.67;44.32;101363.78;4975008;28;20027;-66
2022/06/26 11:31:13;;;;;;;2.83;1.25;;;;;;;27.84;44.03;101364.00;4958654;28;20027;-65
2022/06/26 11:33:42;;;;;;;2.70;1.13;;;;;;;27.92;43.18;101377.47;4974928;28;20031;-65
2022/06/26 11:36:12;;;;;;;4.43;1.20;;;;;;;27.97;43.55;101385.91;4976108;28;20374;-65